Time;durP1;ratioP1;P1;durP2;ratioP2;P2;SDS_P1;SDS_P2;PMS_P1;PMS_P2;Temp;Humidity;BMP_temperature;BMP_pressure;BME280_temperature;BME280_humidity;BME280_pressure;Samples;Min_cycle;Max_cycle;Signal;HPM_P1;HPM_P2
2024/01/12 00:00:57;;;;;;;102.37;30.83;;;;;;;;;;4965411;28;20106;-71
2024/01/12 00:03:22;;;;;;;113.80;32.07;;;;;;;;;;4968014;28;20279;-73
2024/01/12 00:05:47;;;;;;;105.73;31.33;;;;;;;;;;4967251;28;20936;-73
2024/01/12 00:08:13;;;;;;;100.70;30.17;;;;;;;;;;4968821;28;20272;-72
2024/01/12 00:10:38;;;;;;;104.00;29.58;;;;;;;;;;4965257;28;20328;-70
2024/01/12 00:13:03;;;;;;;114.83;31.43;;;;;;;;;;4965835;28;20035;-72
2024/01/12 00:15:29;;;;;;;95.22;28.00;;;;;;;;;;4967948;28;20363;-72
2024/01/12 00:17:54;;;;;;;107.47;31.75;;;;;;;;;;4967377;28;20116;-72
2024/01/12 00:20:19;;;;;;;113.27;29.53;;;;;;;;;;4966088;28;20031;-71
2024/01/12 00:22:44;;;;;;;106.45;29.08;;;;;;;;;;4965047;28;20781;-70
2024/01/12 00:25:10;;;;;;;104.05;31.40;;;;;;;;;;4967666;28;20034;-72
2024/01/12 00:27:35;;;;;;;110.55;31.65;;;;;;;;;;4978114;28;20047;-70
2024/01/12 00:30:00;;;;;;;105.60;31.30;;;;;;;;;;4984808;28;20105;-76
2024/01/12 00:32:26;;;;;;;105.32;31.73;;;;;;;;;;4986448;28;20026;-77
2024/01/12 00:34:51;;;;;;;100.35;30.48;;;;;;;;;;4986904;28;20109;-76
2024/01/12 00:37:16;;;;;;;108.05;31.15;;;;;;;;;;4988320;28;20034;-74
2024/01/12 00:39:41;;;;;;;112.68;30.63;;;;;;;;;;4987184;28;20030;-77
2024/01/12 00:42:07;;;;;;;110.10;30.77;;;;;;;;;;4970074;28;20037;-75
2024/01/12 00:44:32;;;;;;;101.95;28.10;;;;;;;;;;4968653;28;20114;-76
2024/01/12 00:46:57;;;;;;;104.13;31.15;;;;;;;;;;4987640;28;20030;-76
2024/01/12 00:49:23;;;;;;;105.30;30.38;;;;;;;;;;4983273;28;20038;-75
2024/01/12 00:51:48;;;;;;;99.90;29.15;;;;;;;;;;4987600;28;20026;-74
2024/01/12 00:54:13;;;;;;;87.70;27.17;;;;;;;;;;4986872;28;20412;-74
2024/01/12 00:56:39;;;;;;;90.30;27.05;;;;;;;;;;4984350;28;20381;-75
2024/01/12 00:59:07;;;;;;;95.63;29.13;;;;;;;;;;4985956;28;20109;-75
2024/01/12 01:01:35;;;;;;;92.78;30.08;;;;;;;;;;4987012;28;20480;-75
2024/01/12 01:04:01;;;;;;;98.45;28.88;;;;;;;;;;4965297;28;20080;-76
2024/01/12 01:06:26;;;;;;;91.20;30.50;;;;;;;;;;4986464;28;20049;-76
2024/01/12 01:08:52;;;;;;;85.28;28.08;;;;;;;;;;4966687;28;20022;-74
2024/01/12 01:11:17;;;;;;;86.00;28.77;;;;;;;;;;4990535;28;20029;-75
2024/01/12 01:13:43;;;;;;;86.63;26.85;;;;;;;;;;4990669;28;20976;-76
2024/01/12 01:16:09;;;;;;;89.95;28.17;;;;;;;;;;4989700;28;20149;-76
2024/01/12 01:18:34;;;;;;;85.65;28.30;;;;;;;;;;4988222;28;20064;-76
2024/01/12 01:20:59;;;;;;;82.18;27.67;;;;;;;;;;4972121;28;20030;-76
2024/01/12 01:23:24;;;;;;;77.88;26.65;;;;;;;;;;4986380;28;20430;-75
2024/01/12 01:25:50;;;;;;;82.88;27.58;;;;;;;;;;4987463;28;20113;-76
2024/01/12 01:28:15;;;;;;;82.78;27.67;;;;;;;;;;4972968;28;20138;-75
2024/01/12 01:30:41;;;;;;;83.63;25.83;;;;;;;;;;4990794;28;20092;-76
2024/01/12 01:33:06;;;;;;;89.25;26.67;;;;;;;;;;4991586;28;20262;-75
2024/01/12 01:35:31;;;;;;;87.68;27.70;;;;;;;;;;4989321;28;20125;-75
2024/01/12 01:37:57;;;;;;;92.90;27.50;;;;;;;;;;4985285;28;20018;-75
2024/01/12 01:40:22;;;;;;;87.90;28.98;;;;;;;;;;4990779;28;20384;-74
2024/01/12 01:42:48;;;;;;;93.53;29.52;;;;;;;;;;4986790;28;20041;-76
2024/01/12 01:45:14;;;;;;;92.57;28.70;;;;;;;;;;4989238;28;20878;-74
2024/01/12 01:47:39;;;;;;;86.30;29.67;;;;;;;;;;4968839;28;20074;-76
2024/01/12 01:50:05;;;;;;;89.28;28.98;;;;;;;;;;4989530;28;20026;-76
2024/01/12 01:52:30;;;;;;;100.60;29.48;;;;;;;;;;4966046;28;20033;-75
2024/01/12 01:54:56;;;;;;;98.30;30.98;;;;;;;;;;4988083;28;20473;-75
2024/01/12 01:57:22;;;;;;;90.65;28.75;;;;;;;;;;4988942;28;20022;-76
2024/01/12 01:59:47;;;;;;;103.50;31.05;;;;;;;;;;4972457;28;20077;-75
2024/01/12 02:02:13;;;;;;;102.85;29.35;;;;;;;;;;4989083;28;20113;-75
2024/01/12 02:04:38;;;;;;;107.65;31.00;;;;;;;;;;4985195;28;20046;-74
2024/01/12 02:07:04;;;;;;;102.10;31.55;;;;;;;;;;4986626;28;20026;-74
2024/01/12 02:09:31;;;;;;;99.45;31.05;;;;;;;;;;4986291;28;20069;-76
2024/01/12 02:11:57;;;;;;;105.47;31.02;;;;;;;;;;4988649;28;20093;-76
2024/01/12 02:14:22;;;;;;;104.70;30.38;;;;;;;;;;4968827;28;20030;-76
2024/01/12 02:16:47;;;;;;;99.65;29.98;;;;;;;;;;4985878;28;20136;-73
2024/01/12 02:19:12;;;;;;;103.00;30.55;;;;;;;;;;4985126;28;20045;-75
2024/01/12 02:21:38;;;;;;;107.60;30.57;;;;;;;;;;4970456;28;20026;-76
2024/01/12 02:24:03;;;;;;;110.33;30.80;;;;;;;;;;4983469;28;20287;-74
2024/01/12 02:26:28;;;;;;;101.03;32.55;;;;;;;;;;4986058;28;20711;-75
2024/01/12 02:28:54;;;;;;;105.90;31.30;;;;;;;;;;4989039;28;20034;-75
2024/01/12 02:31:19;;;;;;;119.68;33.72;;;;;;;;;;4969361;28;20421;-76
2024/01/12 02:33:47;;;;;;;109.60;32.60;;;;;;;;;;4988286;28;20044;-74
2024/01/12 02:36:12;;;;;;;109.25;33.42;;;;;;;;;;4988840;28;20026;-76
2024/01/12 02:38:37;;;;;;;105.77;34.23;;;;;;;;;;4989466;28;20037;-73
2024/01/12 02:41:02;;;;;;;110.67;32.67;;;;;;;;;;4988274;28;20845;-75
2024/01/12 02:43:28;;;;;;;110.75;32.47;;;;;;;;;;4986330;28;20291;-73
2024/01/12 02:45:53;;;;;;;120.60;34.80;;;;;;;;;;4987605;28;20097;-76
2024/01/12 02:48:18;;;;;;;108.85;33.85;;;;;;;;;;4987081;28;20335;-76
2024/01/12 02:50:43;;;;;;;108.70;33.67;;;;;;;;;;4987402;28;20057;-75
2024/01/12 02:53:09;;;;;;;116.03;34.13;;;;;;;;;;4988033;28;20029;-75
2024/01/12 02:55:34;;;;;;;106.97;33.28;;;;;;;;;;4971546;28;20858;-74
2024/01/12 02:57:59;;;;;;;110.17;32.43;;;;;;;;;;4972214;28;20414;-75
2024/01/12 03:00:25;;;;;;;114.47;34.45;;;;;;;;;;4967036;28;20276;-76
2024/01/12 03:02:50;;;;;;;112.88;33.33;;;;;;;;;;4988938;28;20432;-76
2024/01/12 03:05:15;;;;;;;113.78;34.58;;;;;;;;;;4986824;28;20057;-74
2024/01/12 03:07:40;;;;;;;107.93;34.05;;;;;;;;;;4987320;28;20037;-76
2024/01/12 03:10:06;;;;;;;110.15;33.38;;;;;;;;;;4985293;28;20499;-76
2024/01/12 03:12:31;;;;;;;120.80;32.15;;;;;;;;;;4987375;28;20027;-77
2024/01/12 03:14:56;;;;;;;108.53;33.75;;;;;;;;;;4984737;28;20126;-72
2024/01/12 03:17:22;;;;;;;105.77;32.57;;;;;;;;;;4987762;28;20058;-72
2024/01/12 03:19:47;;;;;;;114.70;33.85;;;;;;;;;;4987177;28;20267;-71
2024/01/12 03:22:12;;;;;;;116.53;32.50;;;;;;;;;;4986883;28;20080;-71
2024/01/12 03:24:37;;;;;;;120.28;33.97;;;;;;;;;;4987098;28;20030;-71
2024/01/12 03:27:03;;;;;;;116.30;35.60;;;;;;;;;;4987772;28;20464;-71
2024/01/12 03:29:29;;;;;;;111.55;32.50;;;;;;;;;;4970268;28;20054;-71
2024/01/12 03:31:55;;;;;;;110.20;33.63;;;;;;;;;;4986452;28;20026;-72
2024/01/12 03:34:20;;;;;;;127.38;34.58;;;;;;;;;;4984153;28;20102;-72
2024/01/12 03:36:45;;;;;;;117.03;33.53;;;;;;;;;;4970907;28;20389;-71
2024/01/12 03:39:11;;;;;;;117.35;33.70;;;;;;;;;;4987553;28;20314;-71
2024/01/12 03:41:36;;;;;;;116.00;34.13;;;;;;;;;;4971210;28;20046;-72
2024/01/12 03:44:01;;;;;;;118.22;34.08;;;;;;;;;;4985629;28;20018;-72
2024/01/12 03:46:27;;;;;;;125.97;35.03;;;;;;;;;;4971228;28;20041;-71
2024/01/12 03:48:52;;;;;;;119.63;35.35;;;;;;;;;;4985618;28;20044;-71
2024/01/12 03:51:17;;;;;;;129.20;34.95;;;;;;;;;;4987196;28;20132;-70
2024/01/12 03:53:42;;;;;;;126.60;35.88;;;;;;;;;;4969159;28;20680;-72
2024/01/12 03:56:08;;;;;;;114.93;35.38;;;;;;;;;;4987543;28;20093;-71
2024/01/12 03:58:35;;;;;;;126.05;35.35;;;;;;;;;;4984083;28;20085;-71
2024/01/12 04:01:01;;;;;;;118.07;34.75;;;;;;;;;;4987775;28;20054;-71
2024/01/12 04:03:26;;;;;;;122.65;35.75;;;;;;;;;;4982269;28;20064;-72
2024/01/12 04:05:51;;;;;;;118.07;35.67;;;;;;;;;;4967918;28;20031;-72
2024/01/12 04:08:16;;;;;;;115.53;36.83;;;;;;;;;;4984993;28;20276;-72
2024/01/12 04:10:42;;;;;;;124.53;37.20;;;;;;;;;;4988613;28;20362;-72
2024/01/12 04:13:08;;;;;;;117.30;36.72;;;;;;;;;;4985910;28;20022;-72
2024/01/12 04:15:33;;;;;;;120.78;36.88;;;;;;;;;;4986291;28;20097;-72
2024/01/12 04:17:58;;;;;;;138.05;39.08;;;;;;;;;;4985764;28;20428;-71
2024/01/12 04:20:23;;;;;;;126.72;38.33;;;;;;;;;;4971085;28;20401;-72
2024/01/12 04:22:49;;;;;;;124.70;38.17;;;;;;;;;;4966120;28;20033;-73
2024/01/12 04:25:14;;;;;;;143.70;41.78;;;;;;;;;;4986511;28;20280;-73
2024/01/12 04:27:39;;;;;;;128.40;40.13;;;;;;;;;;4984334;28;20077;-70
2024/01/12 04:30:05;;;;;;;116.17;36.30;;;;;;;;;;4986453;28;20042;-71
2024/01/12 04:32:31;;;;;;;122.97;37.65;;;;;;;;;;4986580;28;20275;-71
2024/01/12 04:34:56;;;;;;;124.70;38.28;;;;;;;;;;4986861;28;20029;-70
2024/01/12 04:37:21;;;;;;;132.30;38.10;;;;;;;;;;4986980;28;20074;-71
2024/01/12 04:39:47;;;;;;;116.85;37.60;;;;;;;;;;4984994;28;20333;-70
2024/01/12 04:42:12;;;;;;;123.15;38.22;;;;;;;;;;4985114;28;20173;-71
2024/01/12 04:44:38;;;;;;;138.80;41.08;;;;;;;;;;4988479;28;20460;-69
2024/01/12 04:47:04;;;;;;;140.20;40.38;;;;;;;;;;4990645;28;20042;-71
2024/01/12 04:49:29;;;;;;;122.85;36.53;;;;;;;;;;4991723;28;20038;-72
2024/01/12 04:51:55;;;;;;;134.88;39.33;;;;;;;;;;4990180;28;20034;-72
2024/01/12 04:54:20;;;;;;;125.85;38.03;;;;;;;;;;4991379;28;20050;-72
2024/01/12 04:56:45;;;;;;;125.30;38.50;;;;;;;;;;4989662;28;20031;-71
2024/01/12 04:59:11;;;;;;;120.43;35.47;;;;;;;;;;4989241;28;20026;-72
2024/01/12 05:01:36;;;;;;;124.25;35.85;;;;;;;;;;4970066;28;21132;-72
2024/01/12 05:04:01;;;;;;;130.57;39.92;;;;;;;;;;4990220;28;20528;-72
2024/01/12 05:06:27;;;;;;;139.50;39.03;;;;;;;;;;4988446;28;20035;-72
2024/01/12 05:08:52;;;;;;;120.25;38.22;;;;;;;;;;4990343;28;20031;-72
2024/01/12 05:11:18;;;;;;;126.53;37.03;;;;;;;;;;4990533;28;20022;-72
2024/01/12 05:13:44;;;;;;;119.93;37.13;;;;;;;;;;4988278;28;20354;-71
2024/01/12 05:16:09;;;;;;;121.72;36.05;;;;;;;;;;4989518;28;20046;-72
2024/01/12 05:18:34;;;;;;;131.35;37.92;;;;;;;;;;4988140;28;20522;-72
2024/01/12 05:20:59;;;;;;;118.07;37.20;;;;;;;;;;4990162;28;20129;-70
2024/01/12 05:23:25;;;;;;;118.03;37.13;;;;;;;;;;4990857;28;20266;-71
2024/01/12 05:25:50;;;;;;;113.05;34.05;;;;;;;;;;4987147;28;20121;-72
2024/01/12 05:28:15;;;;;;;112.57;32.20;;;;;;;;;;4989227;28;20050;-72
2024/01/12 05:30:42;;;;;;;100.10;33.47;;;;;;;;;;4988625;28;20034;-72
2024/01/12 05:33:07;;;;;;;106.80;33.53;;;;;;;;;;4990303;28;20034;-72
2024/01/12 05:35:32;;;;;;;102.30;31.77;;;;;;;;;;4986680;28;20082;-72
2024/01/12 05:37:58;;;;;;;109.77;32.93;;;;;;;;;;4990702;28;20030;-71
2024/01/12 05:40:23;;;;;;;101.25;30.85;;;;;;;;;;4989729;28;20697;-71
2024/01/12 05:42:48;;;;;;;100.38;30.77;;;;;;;;;;4989174;28;20681;-72
2024/01/12 05:45:13;;;;;;;104.43;31.33;;;;;;;;;;4988178;28;20524;-72
2024/01/12 05:47:39;;;;;;;114.40;34.28;;;;;;;;;;4972315;28;20030;-69
2024/01/12 05:50:06;;;;;;;106.93;34.30;;;;;;;;;;4987406;28;20109;-72
2024/01/12 05:52:32;;;;;;;100.70;31.80;;;;;;;;;;4986837;28;20030;-70
2024/01/12 05:54:57;;;;;;;104.40;34.38;;;;;;;;;;4980358;28;20081;-72
2024/01/12 05:57:22;;;;;;;103.78;32.58;;;;;;;;;;4983874;28;20022;-71
2024/01/12 05:59:48;;;;;;;95.73;32.60;;;;;;;;;;4989865;28;20100;-71
2024/01/12 06:02:15;;;;;;;99.85;32.33;;;;;;;;;;4983377;28;20283;-71
2024/01/12 06:04:40;;;;;;;92.30;31.10;;;;;;;;;;4988659;28;20058;-71
2024/01/12 06:07:06;;;;;;;91.55;30.50;;;;;;;;;;4967256;28;20065;-71
2024/01/12 06:09:31;;;;;;;95.77;31.43;;;;;;;;;;4987697;28;20469;-71
2024/01/12 06:11:56;;;;;;;95.25;31.70;;;;;;;;;;4987634;28;20303;-71
2024/01/12 06:14:21;;;;;;;93.15;31.10;;;;;;;;;;4969699;28;20555;-71
2024/01/12 06:16:47;;;;;;;103.60;31.65;;;;;;;;;;4983451;28;20150;-71
2024/01/12 06:19:12;;;;;;;93.40;30.50;;;;;;;;;;4987527;28;20026;-70
2024/01/12 06:21:37;;;;;;;101.07;30.85;;;;;;;;;;4983548;28;20268;-71
2024/01/12 06:24:03;;;;;;;99.85;31.88;;;;;;;;;;4985237;28;20030;-73
2024/01/12 06:26:28;;;;;;;104.78;32.88;;;;;;;;;;4987645;28;20049;-72
2024/01/12 06:28:53;;;;;;;102.95;32.40;;;;;;;;;;4967267;28;20393;-71
2024/01/12 06:31:19;;;;;;;97.77;31.77;;;;;;;;;;4982315;28;20035;-70
2024/01/12 06:33:44;;;;;;;103.70;32.80;;;;;;;;;;4966625;28;20321;-70
2024/01/12 06:36:09;;;;;;;104.93;33.22;;;;;;;;;;4984205;28;20489;-71
2024/01/12 06:38:34;;;;;;;99.13;32.10;;;;;;;;;;4989872;28;20022;-71
2024/01/12 06:41:01;;;;;;;99.07;33.70;;;;;;;;;;4967808;28;20034;-71
2024/01/12 06:43:26;;;;;;;103.28;31.80;;;;;;;;;;4986623;28;20027;-72
2024/01/12 06:45:52;;;;;;;97.77;32.57;;;;;;;;;;4982706;28;20103;-72
2024/01/12 06:48:17;;;;;;;109.40;33.40;;;;;;;;;;4986565;28;20275;-69
2024/01/12 06:50:42;;;;;;;101.43;34.63;;;;;;;;;;4982703;28;20091;-72
2024/01/12 06:53:13;;;;;;;109.43;34.15;;;;;;;;;;4984404;28;20029;-70
2024/01/12 06:55:38;;;;;;;102.65;34.00;;;;;;;;;;4964849;28;20500;-71
2024/01/12 06:58:03;;;;;;;98.63;33.63;;;;;;;;;;4985717;28;20137;-71
2024/01/12 07:00:29;;;;;;;100.95;32.60;;;;;;;;;;4967709;28;20437;-72
2024/01/12 07:02:54;;;;;;;107.50;33.35;;;;;;;;;;4983406;28;20033;-72
2024/01/12 07:05:20;;;;;;;104.25;33.70;;;;;;;;;;4986074;28;20392;-71
2024/01/12 07:07:45;;;;;;;105.53;32.17;;;;;;;;;;4985214;28;20034;-73
2024/01/12 07:10:13;;;;;;;100.63;32.75;;;;;;;;;;4987207;28;20515;-74
2024/01/12 07:12:38;;;;;;;101.53;32.28;;;;;;;;;;4967343;28;20073;-74
2024/01/12 07:15:05;;;;;;;100.27;32.53;;;;;;;;;;4985879;28;20034;-75
2024/01/12 07:17:30;;;;;;;100.95;33.40;;;;;;;;;;4987843;28;20338;-76
2024/01/12 07:19:55;;;;;;;106.10;35.50;;;;;;;;;;4983032;28;20038;-74
2024/01/12 07:22:20;;;;;;;118.05;38.13;;;;;;;;;;4985040;28;20057;-72
2024/01/12 07:24:46;;;;;;;116.93;34.37;;;;;;;;;;4986883;28;20117;-75
2024/01/12 07:27:11;;;;;;;103.88;35.65;;;;;;;;;;4965669;28;20300;-75
2024/01/12 07:29:37;;;;;;;105.25;33.28;;;;;;;;;;4963145;28;20027;-75
2024/01/12 07:32:02;;;;;;;104.72;32.50;;;;;;;;;;4964532;28;20122;-75
2024/01/12 07:34:27;;;;;;;106.47;33.90;;;;;;;;;;4961857;28;20030;-74
2024/01/12 07:36:52;;;;;;;103.55;33.80;;;;;;;;;;4958969;28;20038;-74
2024/01/12 07:39:18;;;;;;;101.13;32.90;;;;;;;;;;4964059;28;20104;-75
2024/01/12 07:41:43;;;;;;;99.63;32.57;;;;;;;;;;4965577;28;20027;-74
2024/01/12 07:44:11;;;;;;;103.18;33.03;;;;;;;;;;4964635;28;20280;-74
2024/01/12 07:46:36;;;;;;;108.68;34.20;;;;;;;;;;4967578;28;20473;-74
2024/01/12 07:49:02;;;;;;;111.82;34.15;;;;;;;;;;4964444;28;20035;-74
2024/01/12 07:51:27;;;;;;;105.95;33.28;;;;;;;;;;4965113;28;20030;-75
2024/01/12 07:53:52;;;;;;;105.30;34.47;;;;;;;;;;4964199;28;20074;-74
2024/01/12 07:56:18;;;;;;;106.25;34.72;;;;;;;;;;4966221;28;20030;-74
2024/01/12 07:58:43;;;;;;;108.90;34.05;;;;;;;;;;4965913;28;20046;-74
2024/01/12 08:01:12;;;;;;;109.35;35.22;;;;;;;;;;4963845;28;20035;-74
2024/01/12 08:03:37;;;;;;;115.03;35.13;;;;;;;;;;4966212;28;20038;-73
2024/01/12 08:06:02;;;;;;;110.30;37.97;;;;;;;;;;4966912;28;20042;-75
2024/01/12 08:08:28;;;;;;;110.18;35.53;;;;;;;;;;4964480;28;20435;-74
2024/01/12 08:10:53;;;;;;;122.57;38.93;;;;;;;;;;4965556;28;20030;-75
2024/01/12 08:13:18;;;;;;;133.13;40.93;;;;;;;;;;4963831;28;20348;-75
2024/01/12 08:15:43;;;;;;;120.75;37.17;;;;;;;;;;4968351;28;20786;-75
2024/01/12 08:18:09;;;;;;;114.47;36.30;;;;;;;;;;4965033;28;20031;-75
2024/01/12 08:20:34;;;;;;;122.32;39.00;;;;;;;;;;4965371;28;20117;-75
2024/01/12 08:22:59;;;;;;;120.55;36.85;;;;;;;;;;4976703;28;20661;-75
2024/01/12 08:25:24;;;;;;;110.83;36.63;;;;;;;;;;4966727;28;20058;-75
2024/01/12 08:27:50;;;;;;;126.00;40.33;;;;;;;;;;4979328;28;20291;-75
2024/01/12 08:30:15;;;;;;;120.22;41.53;;;;;;;;;;4983555;28;20030;-76
2024/01/12 08:32:40;;;;;;;143.07;47.25;;;;;;;;;;4969512;28;20044;-75
2024/01/12 08:35:06;;;;;;;135.88;44.15;;;;;;;;;;4986196;28;20022;-75
2024/01/12 08:37:31;;;;;;;136.57;45.22;;;;;;;;;;4984831;28;20362;-75
2024/01/12 08:39:57;;;;;;;142.48;48.97;;;;;;;;;;4984160;28;20072;-73
2024/01/12 08:42:22;;;;;;;140.27;47.97;;;;;;;;;;4961926;28;20035;-75
2024/01/12 08:44:47;;;;;;;141.68;50.63;;;;;;;;;;4986793;28;20474;-75
2024/01/12 08:47:13;;;;;;;143.48;50.88;;;;;;;;;;4982105;28;20500;-74
2024/01/12 08:49:38;;;;;;;140.63;48.58;;;;;;;;;;4987776;28;20030;-75
2024/01/12 08:52:03;;;;;;;139.88;45.83;;;;;;;;;;4980653;28;20722;-75
2024/01/12 08:54:29;;;;;;;141.13;47.25;;;;;;;;;;4984201;28;20030;-74
2024/01/12 08:56:54;;;;;;;146.00;50.47;;;;;;;;;;4979262;28;20022;-74
2024/01/12 08:59:20;;;;;;;159.65;51.22;;;;;;;;;;4986559;28;20397;-75
2024/01/12 09:01:45;;;;;;;155.02;52.85;;;;;;;;;;4982133;28;20026;-74
2024/01/12 09:04:11;;;;;;;175.82;57.35;;;;;;;;;;4981070;28;20088;-77
2024/01/12 09:06:36;;;;;;;157.27;50.83;;;;;;;;;;4978412;28;20042;-75
2024/01/12 09:09:02;;;;;;;147.80;47.73;;;;;;;;;;4981172;28;20035;-75
2024/01/12 09:11:28;;;;;;;123.32;41.80;;;;;;;;;;4964443;28;20287;-75
2024/01/12 09:13:53;;;;;;;124.70;42.83;;;;;;;;;;4986671;28;20041;-75
2024/01/12 09:16:18;;;;;;;118.97;41.15;;;;;;;;;;4983144;28;20396;-75
2024/01/12 09:18:44;;;;;;;114.95;38.40;;;;;;;;;;4986257;28;20027;-73
2024/01/12 09:21:14;;;;;;;118.35;40.35;;;;;;;;;;4983798;28;20089;-75
2024/01/12 09:23:39;;;;;;;117.88;40.17;;;;;;;;;;4987269;28;20030;-73
2024/01/12 09:26:05;;;;;;;128.43;43.67;;;;;;;;;;4983863;28;20033;-74
2024/01/12 09:28:30;;;;;;;131.10;39.95;;;;;;;;;;4983372;28;20386;-74
2024/01/12 09:30:55;;;;;;;139.70;46.28;;;;;;;;;;4984816;28;20054;-75
2024/01/12 09:33:21;;;;;;;127.32;42.95;;;;;;;;;;4968918;28;20076;-74
2024/01/12 09:35:46;;;;;;;153.38;49.42;;;;;;;;;;4969745;28;20030;-75
2024/01/12 09:38:11;;;;;;;149.38;47.17;;;;;;;;;;4988943;28;20053;-73
2024/01/12 09:40:36;;;;;;;123.43;41.88;;;;;;;;;;4987503;28;20140;-75
2024/01/12 09:43:04;;;;;;;134.85;42.47;;;;;;;;;;4990353;28;20098;-74
2024/01/12 09:45:31;;;;;;;126.53;41.20;;;;;;;;;;4986280;28;21833;-75
2024/01/12 09:47:56;;;;;;;113.22;36.78;;;;;;;;;;4989473;28;20026;-72
2024/01/12 09:50:21;;;;;;;131.95;41.13;;;;;;;;;;4986456;28;20101;-75
2024/01/12 09:52:48;;;;;;;118.72;40.03;;;;;;;;;;4988838;28;20033;-75
2024/01/12 09:55:13;;;;;;;124.80;38.75;;;;;;;;;;4970239;28;20568;-75
2024/01/12 09:57:38;;;;;;;157.65;47.40;;;;;;;;;;4972571;28;20037;-74
2024/01/12 10:00:05;;;;;;;170.05;49.47;;;;;;;;;;4987370;28;20054;-74
2024/01/12 10:02:30;;;;;;;130.32;42.78;;;;;;;;;;4987991;28;20050;-75
2024/01/12 10:04:56;;;;;;;144.75;42.47;;;;;;;;;;4969216;28;20057;-75
2024/01/12 10:07:21;;;;;;;149.00;45.53;;;;;;;;;;4988341;28;20066;-76
2024/01/12 10:09:46;;;;;;;124.57;38.78;;;;;;;;;;4986446;28;20026;-74
2024/01/12 10:12:12;;;;;;;149.25;42.95;;;;;;;;;;4970238;28;20584;-75
2024/01/12 10:14:37;;;;;;;147.40;47.10;;;;;;;;;;4988119;28;20539;-74
2024/01/12 10:17:02;;;;;;;129.75;42.08;;;;;;;;;;4987277;28;20268;-75
2024/01/12 10:19:28;;;;;;;154.60;47.25;;;;;;;;;;4987554;28;20382;-75
2024/01/12 10:21:54;;;;;;;130.98;41.35;;;;;;;;;;4970754;28;20057;-74
2024/01/12 10:24:20;;;;;;;142.80;47.15;;;;;;;;;;4969527;28;20026;-74
2024/01/12 10:26:46;;;;;;;129.80;42.75;;;;;;;;;;4984367;28;20105;-74
2024/01/12 10:29:12;;;;;;;135.55;45.38;;;;;;;;;;4985389;28;20432;-75
2024/01/12 10:31:39;;;;;;;141.07;44.30;;;;;;;;;;4971257;28;20113;-74
2024/01/12 10:34:07;;;;;;;121.15;40.70;;;;;;;;;;4986351;28;20022;-75
2024/01/12 10:36:35;;;;;;;123.82;40.85;;;;;;;;;;4987782;28;20120;-74
2024/01/12 10:39:01;;;;;;;125.50;38.70;;;;;;;;;;4987477;28;20023;-74
2024/01/12 10:41:27;;;;;;;130.35;43.75;;;;;;;;;;4969735;28;20076;-74
2024/01/12 10:43:54;;;;;;;132.90;42.60;;;;;;;;;;4987133;28;20041;-74
2024/01/12 10:46:27;;;;;;;154.50;56.67;;;;;;;;;;4968514;28;20034;-73
2024/01/12 10:49:02;;;;;;;137.68;48.20;;;;;;;;;;4987372;28;20147;-75
2024/01/12 10:51:30;;;;;;;137.38;47.25;;;;;;;;;;4987161;28;20037;-75
2024/01/12 10:54:00;;;;;;;135.10;44.90;;;;;;;;;;4985707;28;20017;-75
2024/01/12 10:56:27;;;;;;;132.35;41.90;;;;;;;;;;4984830;28;20355;-74
2024/01/12 10:58:53;;;;;;;124.45;40.85;;;;;;;;;;4985917;28;20436;-75
2024/01/12 11:01:20;;;;;;;120.80;39.92;;;;;;;;;;4986459;28;20037;-74
2024/01/12 11:03:46;;;;;;;129.30;39.78;;;;;;;;;;4987731;28;20045;-74
2024/01/12 11:06:13;;;;;;;124.60;38.38;;;;;;;;;;4987647;28;20062;-75
2024/01/12 11:08:40;;;;;;;119.97;37.67;;;;;;;;;;4970123;28;20489;-75
2024/01/12 11:11:05;;;;;;;117.43;39.95;;;;;;;;;;4986891;28;20042;-74
2024/01/12 11:13:31;;;;;;;119.88;39.45;;;;;;;;;;4970693;28;20026;-75
2024/01/12 11:15:56;;;;;;;143.65;45.10;;;;;;;;;;4986671;28;20030;-75
2024/01/12 11:18:21;;;;;;;141.15;43.55;;;;;;;;;;4971207;28;20057;-74
2024/01/12 11:20:47;;;;;;;176.93;49.92;;;;;;;;;;4986442;28;20524;-74
2024/01/12 11:23:12;;;;;;;141.23;48.53;;;;;;;;;;4987772;28;20026;-75
2024/01/12 11:25:37;;;;;;;133.38;48.20;;;;;;;;;;4967324;28;20462;-75
2024/01/12 11:28:03;;;;;;;130.25;44.25;;;;;;;;;;4986554;28;20133;-73
2024/01/12 11:30:29;;;;;;;130.65;42.80;;;;;;;;;;4987346;28;20026;-75
2024/01/12 11:33:04;;;;;;;125.38;38.13;;;;;;;;;;4970988;28;20040;-75
2024/01/12 11:35:30;;;;;;;113.30;39.53;;;;;;;;;;4965303;28;20030;-76
2024/01/12 11:38:21;;;;;;;119.18;39.92;;;;;;;;;;4985146;28;20093;-75
2024/01/12 11:40:48;;;;;;;124.70;40.88;;;;;;;;;;4964424;28;20054;-74
2024/01/12 11:43:19;;;;;;;130.25;40.10;;;;;;;;;;4987525;28;20034;-73
2024/01/12 11:45:45;;;;;;;134.85;45.00;;;;;;;;;;4986394;28;20053;-75
2024/01/12 11:48:16;;;;;;;133.98;43.85;;;;;;;;;;4969128;28;20023;-74
2024/01/12 11:50:41;;;;;;;119.63;41.50;;;;;;;;;;4985580;28;20076;-76
2024/01/12 11:53:08;;;;;;;112.68;37.60;;;;;;;;;;4985840;28;20064;-73
2024/01/12 11:55:36;;;;;;;113.95;37.42;;;;;;;;;;4984988;28;20030;-74
2024/01/12 11:58:01;;;;;;;105.68;34.25;;;;;;;;;;4984098;28;20117;-75
2024/01/12 12:00:27;;;;;;;113.82;36.53;;;;;;;;;;4983946;28;20544;-76
2024/01/12 12:02:52;;;;;;;116.70;36.83;;;;;;;;;;4985345;28;20032;-79
2024/01/12 12:05:17;;;;;;;113.60;37.38;;;;;;;;;;4984868;28;20033;-76
2024/01/12 12:07:43;;;;;;;107.82;39.42;;;;;;;;;;4986654;28;20426;-77
2024/01/12 12:10:09;;;;;;;107.47;35.45;;;;;;;;;;4966032;28;20034;-76
2024/01/12 12:12:35;;;;;;;99.05;34.47;;;;;;;;;;4982916;28;20038;-76
2024/01/12 12:15:04;;;;;;;103.55;34.20;;;;;;;;;;4988257;28;20029;-75
2024/01/12 12:17:29;;;;;;;;;;;;;;;;;;4985317;28;20033;-75
2024/01/12 12:19:55;;;;;;;101.10;32.72;;;;;;;;;;4987298;28;20361;-76
2024/01/12 12:22:20;;;;;;;103.00;33.70;;;;;;;;;;4986038;28;20044;-76
2024/01/12 12:24:46;;;;;;;93.95;30.10;;;;;;;;;;4987763;28;20565;-75
2024/01/12 12:27:11;;;;;;;101.65;34.58;;;;;;;;;;4985524;28;20051;-76
2024/01/12 12:29:36;;;;;;;103.82;35.17;;;;;;;;;;4988058;28;20041;-75
2024/01/12 12:32:01;;;;;;;104.10;35.23;;;;;;;;;;4987255;28;21421;-76
2024/01/12 12:34:33;;;;;;;100.97;32.13;;;;;;;;;;4968072;28;20299;-76
2024/01/12 12:36:58;;;;;;;100.38;33.28;;;;;;;;;;4985718;28;20084;-75
2024/01/12 12:39:24;;;;;;;100.00;31.42;;;;;;;;;;4964577;28;20026;-75
2024/01/12 12:41:49;;;;;;;99.65;31.95;;;;;;;;;;4986334;28;20384;-75
2024/01/12 12:44:14;;;;;;;98.72;33.47;;;;;;;;;;4986617;28;20473;-71
2024/01/12 12:46:40;;;;;;;100.10;32.88;;;;;;;;;;4984788;28;20023;-72
2024/01/12 12:49:09;;;;;;;106.57;35.95;;;;;;;;;;4982984;28;20038;-74
2024/01/12 12:51:34;;;;;;;97.57;32.35;;;;;;;;;;4985888;28;20046;-75
2024/01/12 12:53:59;;;;;;;105.60;33.47;;;;;;;;;;4982273;28;20065;-75
2024/01/12 12:56:25;;;;;;;96.75;33.60;;;;;;;;;;4987024;28;20106;-74
2024/01/12 12:58:50;;;;;;;94.60;32.50;;;;;;;;;;4969689;28;20038;-72
2024/01/12 13:01:19;;;;;;;106.57;35.40;;;;;;;;;;4987296;28;20062;-72
2024/01/12 13:03:44;;;;;;;101.53;33.78;;;;;;;;;;4968689;28;20122;-74
2024/01/12 13:06:13;;;;;;;103.35;35.33;;;;;;;;;;4972970;28;20113;-72
2024/01/12 13:08:39;;;;;;;99.80;34.25;;;;;;;;;;4970888;28;20042;-72
2024/01/12 13:11:04;;;;;;;87.63;32.15;;;;;;;;;;4989308;28;20105;-71
2024/01/12 13:13:29;;;;;;;98.90;34.20;;;;;;;;;;4988457;28;20053;-73
2024/01/12 13:15:55;;;;;;;111.00;35.77;;;;;;;;;;4987917;28;20037;-74
2024/01/12 13:18:20;;;;;;;110.40;35.05;;;;;;;;;;4989691;28;20280;-73
2024/01/12 13:20:48;;;;;;;111.50;37.70;;;;;;;;;;4990463;28;20029;-74
2024/01/12 13:23:13;;;;;;;110.35;36.92;;;;;;;;;;4988705;28;20030;-74
2024/01/12 13:25:39;;;;;;;109.07;35.42;;;;;;;;;;4971703;28;20115;-71
2024/01/12 13:28:04;;;;;;;111.15;37.78;;;;;;;;;;4985970;28;20065;-73
2024/01/12 13:30:29;;;;;;;110.50;36.30;;;;;;;;;;4987884;28;20035;-76
2024/01/12 13:32:55;;;;;;;104.43;36.17;;;;;;;;;;4973145;28;20122;-76
2024/01/12 13:35:21;;;;;;;110.72;37.75;;;;;;;;;;4989336;28;20648;-76
2024/01/12 13:37:46;;;;;;;105.05;35.75;;;;;;;;;;4985860;28;20079;-76
2024/01/12 13:40:12;;;;;;;104.55;35.65;;;;;;;;;;4990829;28;20030;-76
2024/01/12 13:42:37;;;;;;;97.82;35.58;;;;;;;;;;4987739;28;20088;-77
2024/01/12 13:45:03;;;;;;;107.68;36.05;;;;;;;;;;4989661;28;20110;-76
2024/01/12 13:47:28;;;;;;;106.40;38.72;;;;;;;;;;4988973;28;20045;-75
2024/01/12 13:49:53;;;;;;;104.30;37.07;;;;;;;;;;4987597;28;20101;-77
2024/01/12 13:52:19;;;;;;;114.25;38.67;;;;;;;;;;4986779;28;20298;-77
2024/01/12 13:54:44;;;;;;;100.22;35.20;;;;;;;;;;4971488;28;20022;-75
2024/01/12 13:57:10;;;;;;;107.40;35.53;;;;;;;;;;4988524;28;20104;-76